sensor_id;sensor_type;location;lat;lon;timestamp;pressure;altitude;pressure_sealevel;temperature;humidity
71642;BME280;60657;50.122;14.468;2022-11-15T00:02:07;98426.25138669992;;;7.391851682307163;84.4383154039826
71642;BME280;60657;50.122;14.468;2022-11-15T00:05:24;98426.973712414;;;7.301060502021819;84.69008926527809
71642;BME280;60657;50.122;14.468;2022-11-15T00:08:40;98425.27178126911;;;7.277027542534526;84.64240482185092
71642;BME280;60657;50.122;14.468;2022-11-15T00:11:56;98422.79362114352;;;7.223620965896089;84.66338597695888
71642;BME280;60657;50.122;14.468;2022-11-15T00:15:12;98427.73108633168;;;7.194247348744945;84.54322117952239
71642;BME280;60657;50.122;14.468;2022-11-15T00:18:28;98421.86675394364;;;7.164873731593808;84.39444571602961
71642;BME280;60657;50.122;14.468;2022-11-15T00:21:45;98416.15418401422;;;7.1702143892576515;84.38490882734416
71642;BME280;60657;50.122;14.468;2022-11-15T00:25:00;98423.53141046774;;;7.186236362249183;84.35248340581369
71642;BME280;60657;50.122;14.468;2022-11-15T00:28:16;98422.6413481924;;;7.114137483787289;84.60234988937209
71642;BME280;60657;50.122;14.468;2022-11-15T00:31:32;98424.30606347002;;;7.127489127946902;84.55085069047074
71642;BME280;60657;50.122;14.468;2022-11-15T00:34:48;98424.92056050737;;;6.937895780880446;84.98573281452659
71642;BME280;60657;50.122;14.468;2022-11-15T00:38:03;98436.43226825328;;;6.796368352788583;84.9838254367895
71642;BME280;60657;50.122;14.468;2022-11-15T00:41:19;98430.58351780708;;;6.724269474326697;85.22224765392538
71642;BME280;60657;50.122;14.468;2022-11-15T00:44:40;98432.9331666805;;;6.692225528343634;84.93423361562523
71642;BME280;60657;50.122;14.468;2022-11-15T00:48:00;98435.88767618923;;;6.580071717402916;85.10780498970016
71642;BME280;60657;50.122;14.468;2022-11-15T00:51:16;98431.83712398942;;;6.494621194781416;85.37293049515526
71642;BME280;60657;50.122;14.468;2022-11-15T00:54:32;98427.71838803824;;;6.443884946974897;84.84267948424505
71642;BME280;60657;50.122;14.468;2022-11-15T00:57:48;98427.32670286711;;;6.3717860685130105;84.8350499732967
71642;BME280;60657;50.122;14.468;2022-11-15T01:01:05;98421.47314747825;;;6.238269626916917;85.1612115663386
71642;BME280;60657;50.122;14.468;2022-11-15T01:04:23;98421.98838500913;;;6.168841077286949;84.95521477073319
71642;BME280;60657;50.122;14.468;2022-11-15T01:07:38;98419.83140534519;;;6.222247653925386;84.74921797512779
71642;BME280;60657;50.122;14.468;2022-11-15T01:11:00;98422.18548662272;;;6.120775158312355;84.20943007553215
71642;BME280;60657;50.122;14.468;2022-11-15T01:14:16;98426.7325957057;;;5.8457312886244;84.74731059739071
71642;BME280;60657;50.122;14.468;2022-11-15T01:17:32;98417.41291633414;;;5.738918135347525;85.29854276340886
71642;BME280;60657;50.122;14.468;2022-11-15T01:20:47;98406.47728378091;;;5.634775310902569;85.41298542763408
71642;BME280;60657;50.122;14.468;2022-11-15T01:24:03;98406.53069943015;;;5.658808270389869;85.7639429312581
71642;BME280;60657;50.122;14.468;2022-11-15T01:27:19;98405.42720393658;;;5.509269855802245;85.43587396047913
71642;BME280;60657;50.122;14.468;2022-11-15T01:30:35;98419.25624155201;;;5.381094071869995;86.00808728160526
71642;BME280;60657;50.122;14.468;2022-11-15T01:33:51;98427.3023268424;;;5.298313878080414;86.62798504615854
71642;BME280;60657;50.122;14.468;2022-11-15T01:37:09;98432.24440000938;;;5.284962233920808;86.78439002059967
71642;BME280;60657;50.122;14.468;2022-11-15T01:40:25;98419.97555736346;;;5.29297322041657;87.00564583810178
71642;BME280;60657;50.122;14.468;2022-11-15T01:43:40;98420.97919463358;;;5.466544594491495;86.55359731441214
71642;BME280;60657;50.122;14.468;2022-11-15T01:46:56;98407.9811794462;;;5.5653467612726;86.70618753337911
71642;BME280;60657;50.122;14.468;2022-11-15T01:50:16;98399.70516882674;;;5.527962157625694;86.74624246585793
71642;BME280;60657;50.122;14.468;2022-11-15T01:53:36;98405.5905019855;;;5.581368734264132;86.67376211184863
71642;BME280;60657;50.122;14.468;2022-11-15T01:56:58;98399.75938441978;;;5.5653467612726;86.60700389105058
71642;BME280;60657;50.122;14.468;2022-11-15T02:00:18;98412.87013861795;;;5.519951171129932;86.74052033264668
71642;BME280;60657;50.122;14.468;2022-11-15T02:03:36;98398.70745464273;;;5.570687418936444;87.17349507896544
71642;BME280;60657;50.122;14.468;2022-11-15T02:07:04;98407.41676816727;;;5.7362478065156;86.68139162279698
71642;BME280;60657;50.122;14.468;2022-11-15T02:10:24;98391.69646000695;;;5.725566491187912;86.73479819943542
71642;BME280;60657;50.122;14.468;2022-11-15T02:13:40;98395.13230752911;;;5.77897306782635;86.79201953154802
71642;BME280;60657;50.122;14.468;2022-11-15T02:16:58;98379.53983590433;;;5.77897306782635;86.84733348592356
71642;BME280;60657;50.122;14.468;2022-11-15T02:20:41;98389.40555841217;;;5.6748302433814;86.89692530708781
71642;BME280;60657;50.122;14.468;2022-11-15T02:28:44;98383.70344882605;;;5.730907148851756;87.15632867933165
71642;BME280;60657;50.122;14.468;2022-11-15T02:32:18;98380.21921299324;;;5.6748302433814;87.7094682230869
71642;BME280;60657;50.122;14.468;2022-11-15T02:35:43;98392.58170646185;;;5.664148928053713;87.48439765011062
71642;BME280;60657;50.122;14.468;2022-11-15T02:39:10;98384.33139901866;;;5.754940108339056;87.31845578698406
71642;BME280;60657;50.122;14.468;2022-11-15T02:42:44;98387.73996275943;;;5.789654383154037;87.36423285267415
71642;BME280;60657;50.122;14.468;2022-11-15T02:46:07;98387.73996275943;;;5.744258793011369;87.37949187457085
71642;BME280;60657;50.122;14.468;2022-11-15T02:49:32;98387.0596077188;;;5.843060959792474;87.39475089646754
71642;BME280;60657;50.122;14.468;2022-11-15T02:52:51;98382.08840346227;;;5.8297093156328685;86.93316548409247
71642;BME280;60657;50.122;14.468;2022-11-15T02:56:07;98387.0596077188;;;5.752269779507131;87.14488441290914
71642;BME280;60657;50.122;14.468;2022-11-15T02:59:31;98389.55784516745;;;5.864423590447849;86.95414663920043
71642;BME280;60657;50.122;14.468;2022-11-15T03:03:08;98378.44972761036;;;5.672159914549475;87.78004119935912
71642;BME280;60657;50.122;14.468;2022-11-15T03:06:42;98373.47921154008;;;5.6027313649195065;87.62935835812924
71642;BME280;60657;50.122;14.468;2022-11-15T03:10:02;98365.12556118735;;;5.429159990844589;87.95933470664531
71642;BME280;60657;50.122;14.468;2022-11-15T03:13:29;98361.82095916229;;;5.581368734264132;87.71900511177233
